2003 BOURA (2002319S06078)


On this page: IBTrACS data - Map and Plots - Positions - Intensities - Original source data

Summary

Start Nov 14
End Nov 27
Basin SI
LMI 75 kt
Sources jtwc_sh
reunion
neumann
In WMO? Yes
Previous storm 2002 MISSING (EP)
Previous in basin 2003 ATANG (SI)
Concurrent storms 2002 MISSING (EP)
2003 BOURA (SI)
2002 HAISHEN (WP)
2002 MISSING (NI)
Next in basin Missing
Next storm 2002 HAISHEN (WP)

top of page IBTrACS Data: File Access

Image of storm

top of page Plots:

Map of storm track will not appear if FTP is down
Time series of cyclone Maximum Sustained Wind will not appear if FTP is down
Time series of cyclone Minimum Central Pressure will not appear if FTP is down

top of page Track Data:Position

jtwc_sh reunion neumann
Date Lat Lon Lat Lon Lat Lon
2002-11-14 18:00:00 -6.3 77.7 -6.2 78.3 -6.3 77.7
2002-11-15 00:00:00 -7.2 77.2 -7.2 77.4 -7.2 77.2
2002-11-15 06:00:00 -8.1 76.7 -8.1 77.1 -8.1 76.7
2002-11-15 12:00:00 -8.8 75.8 -8.8 76.5 -8.8 75.8
2002-11-15 18:00:00 -9.4 75.0 -9.5 75.3 -9.4 75.0
2002-11-16 00:00:00 -9.9 74.1 -10.0 74.3 -9.9 74.1
2002-11-16 06:00:00 -10.4 73.3 -10.6 73.1 -10.4 73.3
2002-11-16 12:00:00 -10.8 72.5 -11.0 72.1 -10.8 72.5
2002-11-16 18:00:00 -11.3 71.5 -11.5 71.0 -11.3 71.5
2002-11-17 00:00:00 -11.6 70.4 -11.9 70.0 -11.6 70.4
2002-11-17 06:00:00 -12.1 69.5 -12.2 69.5 -12.1 69.5
2002-11-17 12:00:00 -12.7 68.8 -12.7 68.8 -12.7 68.8
2002-11-17 18:00:00 -13.1 68.2 -13.1 68.3 -13.1 68.2
2002-11-18 00:00:00 -13.4 67.5 -13.4 67.5 -13.4 67.5
2002-11-18 06:00:00 -13.6 66.5 -13.3 66.8 -13.6 66.5
2002-11-18 12:00:00 -13.7 65.5 -13.4 66.0 -13.7 65.5
2002-11-18 18:00:00 -13.7 64.7 -13.6 64.7 -13.7 64.7
2002-11-19 00:00:00 -13.7 63.8 -13.5 64.0 -13.7 63.8
2002-11-19 06:00:00 -13.8 62.8 -13.7 63.0 -13.8 62.8
2002-11-19 12:00:00 -14.4 62.0 -14.1 62.3 -14.4 62.0
2002-11-19 18:00:00 -14.8 61.0 -14.6 61.0 -14.8 61.0
2002-11-20 00:00:00 -15.0 59.9 -14.9 60.0 -15.0 59.9
2002-11-20 06:00:00 -15.4 59.1 -15.3 59.3 -15.4 59.1
2002-11-20 12:00:00 -15.6 58.3 -15.5 58.1 -15.6 58.3
2002-11-20 18:00:00 -15.7 57.6 -15.5 57.6 -15.7 57.6
jtwc_sh reunion neumann
2002-11-21 00:00:00 -15.5 56.8 -15.3 56.8 -15.5 56.8
2002-11-21 06:00:00 -15.2 56.0 -15.0 56.1 -15.2 56.0
2002-11-21 12:00:00 -14.8 55.4 -14.5 55.4 -14.8 55.4
2002-11-21 18:00:00 -14.3 54.8 -14.1 55.0 -14.3 54.8
2002-11-22 00:00:00 -13.8 54.2 -13.5 54.4 -13.8 54.2
2002-11-22 06:00:00 -13.2 53.6 -13.1 53.7 -13.2 53.6
2002-11-22 12:00:00 -12.8 53.0 -12.8 52.9 -12.8 53.0
2002-11-22 18:00:00 -12.3 52.3 -12.3 52.4 -12.3 52.3
2002-11-23 00:00:00 -11.7 51.7 -11.6 51.8 -11.7 51.7
2002-11-23 06:00:00 -11.0 51.3 -10.9 51.3 -11.0 51.3
2002-11-23 12:00:00 -10.5 51.0 -10.5 51.1 -10.5 51.0
2002-11-23 18:00:00 -10.1 50.9 -10.2 51.1 -10.1 50.9
2002-11-24 00:00:00 -9.5 50.9 -9.5 50.8 -9.5 50.9
2002-11-24 06:00:00 -9.1 50.8 -9.2 50.6 -9.1 50.8
2002-11-24 12:00:00 -8.7 50.3 -8.9 50.4 -8.7 50.3
2002-11-24 18:00:00 -8.4 49.7 -8.5 50.1 -8.4 49.7
2002-11-25 00:00:00 -8.1 49.2 -8.2 49.6 -8.1 49.2
2002-11-25 06:00:00 -7.8 48.7 -7.9 49.0 -7.8 48.7
2002-11-25 12:00:00 -7.5 48.3 -7.6 48.7 -7.5 48.3
2002-11-25 18:00:00 -7.3 48.5
2002-11-26 00:00:00 -7.3 48.6
2002-11-26 06:00:00 -7.3 48.9
2002-11-26 12:00:00 -7.2 49.1
2002-11-26 18:00:00 -7.1 49.2
jtwc_sh reunion neumann
2002-11-27 00:00:00 -6.8 49.3
2002-11-27 06:00:00 -6.4 49.4

top of pageTrack Data:Intensity

jtwc_sh reunion neumann
Date Wind Pres Wind Pres Wind Pres
2002-11-14 18:00:00 25. 1002. 25. 1002. 25.
2002-11-15 00:00:00 25. 1002. 28. 999. 25.
2002-11-15 06:00:00 30. 1000. 30. 997. 30.
2002-11-15 12:00:00 35. 997. 35. 994. 35.
2002-11-15 18:00:00 40. 994. 35. 994. 40.
2002-11-16 00:00:00 40. 994. 38. 992. 40.
2002-11-16 06:00:00 40. 994. 38. 992. 40.
2002-11-16 12:00:00 45. 991. 40. 990. 45.
2002-11-16 18:00:00 45. 991. 45. 987. 45.
2002-11-17 00:00:00 55. 984. 50. 985. 55.
2002-11-17 06:00:00 65. 976. 60. 975. 65.
2002-11-17 12:00:00 65. 976. 65. 970. 65.
2002-11-17 18:00:00 75. 967. 70. 965. 75.
2002-11-18 00:00:00 75. 967. 70. 965. 75.
2002-11-18 06:00:00 75. 967. 70. 965. 75.
2002-11-18 12:00:00 75. 967. 65. 970. 75.
2002-11-18 18:00:00 75. 967. 60. 975. 75.
2002-11-19 00:00:00 75. 967. 60. 975. 75.
2002-11-19 06:00:00 75. 967. 60. 975. 75.
2002-11-19 12:00:00 75. 967. 60. 975. 75.
2002-11-19 18:00:00 75. 967. 55. 980. 75.
2002-11-20 00:00:00 75. 967. 55. 980. 75.
2002-11-20 06:00:00 75. 967. 55. 980. 75.
2002-11-20 12:00:00 75. 967. 55. 980. 75.
2002-11-20 18:00:00 65. 976. 55. 980. 65.
jtwc_sh reunion neumann
2002-11-21 00:00:00 55. 984. 50. 985. 55.
2002-11-21 06:00:00 50. 987. 45. 987. 50.
2002-11-21 12:00:00 45. 991. 40. 990. 45.
2002-11-21 18:00:00 40. 994. 38. 992. 40.
2002-11-22 00:00:00 35. 997. 35. 995. 35.
2002-11-22 06:00:00 35. 997. 30. 998. 35.
2002-11-22 12:00:00 35. 997. 30. 998. 35.
2002-11-22 18:00:00 30. 1000. 25. 1000. 30.
2002-11-23 00:00:00 30. 1000. 25. 1000. 30.
2002-11-23 06:00:00 30. 1000. 25. 1002. 30.
2002-11-23 12:00:00 25. 1002. 25. 1003. 25.
2002-11-23 18:00:00 25. 1002. 25. 1004. 25.
2002-11-24 00:00:00 25. 1002. 25. 1005. 25.
2002-11-24 06:00:00 25. 1002. 25. 1006. 25.
2002-11-24 12:00:00 25. 1002. 25. 1007. 25.
2002-11-24 18:00:00 25. 1002. 25. 1007. 25.
2002-11-25 00:00:00 25. 1002. 20. 1008. 25.
2002-11-25 06:00:00 25. 1006. 20. 1008. 25.
2002-11-25 12:00:00 25. 1002. 20. 1008. 25.
2002-11-25 18:00:00 20. 1008.
2002-11-26 00:00:00 20. 1008.
2002-11-26 06:00:00 20. 1008.
2002-11-26 12:00:00 20. 1009.
2002-11-26 18:00:00 15. 1009.
jtwc_sh reunion neumann
2002-11-27 00:00:00 15. 1009.
2002-11-27 06:00:00 15. 1010.

top of page Links to source data

Source Source file Format
jtwc_sh bsh032003.txt ATCF
reunion WMO-Best-Tracks.txt:Line=20008:boura WMO (old format)
neumann tracks.sh:Storm=1253:BOURA:BSH032003:JTWC HURDAT